Time;durP1;ratioP1;P1;durP2;ratioP2;P2;SDS_P1;SDS_P2;PMS_P1;PMS_P2;Temp;Humidity;BMP_temperature;BMP_pressure;BME280_temperature;BME280_humidity;BME280_pressure;Samples;Min_cycle;Max_cycle;Signal;HPM_P1;HPM_P2
2021/04/26 00:03:28;;;;;;;75.03;39.20;;;;;;;-1.46;63.27;99838.45;469105;1171;115870;-55
2021/04/26 00:13:32;;;;;;;60.60;32.60;;;;;;;-1.29;63.30;99833.13;470321;1171;116387;-57
2021/04/26 00:23:36;;;;;;;51.43;27.63;;;;;;;-1.20;63.42;99839.91;469606;1170;115861;-55
2021/04/26 00:33:39;;;;;;;54.03;28.03;;;;;;;-1.07;63.42;99845.76;473056;1171;115605;-55
2021/04/26 00:43:43;;;;;;;29.27;16.33;;;;;;;-1.01;63.20;99845.70;477751;1171;116172;-56
2021/04/26 00:53:47;;;;;;;25.97;14.97;;;;;;;-1.21;62.75;99838.21;470207;1170;115647;-56
2021/04/26 01:03:52;;;;;;;24.60;13.40;;;;;;;-1.44;62.98;99847.05;473163;1171;116290;-55
2021/04/26 01:14:07;;;;;;;18.43;11.07;;;;;;;-1.62;62.81;99845.48;474462;1170;116188;-52
2021/04/26 01:24:36;;;;;;;18.35;7.15;;;;;;;-1.64;63.22;99839.50;475223;1171;116615;-53
2021/04/26 01:34:41;;;;;;;15.30;7.70;;;;;;;-1.49;63.02;99837.66;477506;1171;116528;-55
2021/04/26 01:44:45;;;;;;;16.40;8.50;;;;;;;-1.50;62.66;99828.20;475800;1171;116505;-54
2021/04/26 01:54:50;;;;;;;14.97;7.90;;;;;;;-1.57;63.19;99832.57;480811;1171;115820;-57
2021/04/26 02:04:56;;;;;;;17.00;7.95;;;;;;;-1.61;63.11;99820.60;478325;1171;116462;-56
2021/04/26 02:15:00;;;;;;;15.10;7.40;;;;;;;-1.59;63.96;99829.16;475299;1171;116418;-50
2021/04/26 02:25:08;;;;;;;13.95;8.45;;;;;;;-1.56;64.13;99832.56;477220;1171;115821;-51
2021/04/26 02:35:16;;;;;;;16.63;8.73;;;;;;;-1.69;63.82;99816.38;481157;1171;116262;-50
2021/04/26 02:45:25;;;;;;;22.68;11.13;;;;;;;-1.99;64.48;99830.39;470714;1171;116370;-53
2021/04/26 02:55:31;;;;;;;13.30;8.10;;;;;;;-2.18;65.26;99830.56;471166;1171;115895;-52
2021/04/26 03:05:36;;;;;;;15.73;8.37;;;;;;;-2.31;65.16;99841.78;471486;1171;115790;-57
2021/04/26 03:15:40;;;;;;;15.85;8.05;;;;;;;-2.31;65.84;99834.94;477579;1171;117084;-54
2021/04/26 03:25:45;;;;;;;18.30;7.40;;;;;;;-1.98;66.07;99840.69;476372;1171;116016;-55
2021/04/26 03:35:49;;;;;;;13.00;7.35;;;;;;;-1.42;66.01;99819.55;473306;1171;116070;-53
2021/04/26 03:45:55;;;;;;;16.30;8.27;;;;;;;-1.04;66.10;99843.17;477506;1170;116537;-56
2021/04/26 03:55:59;;;;;;;12.13;7.00;;;;;;;-0.85;65.90;99842.91;475202;1171;115656;-54
2021/04/26 04:06:04;;;;;;;15.33;6.80;;;;;;;-0.90;65.64;99844.71;471732;1171;117068;-57
2021/04/26 04:16:08;;;;;;;9.60;5.93;;;;;;;-0.94;65.41;99849.05;470957;1170;115719;-54
2021/04/26 04:26:12;;;;;;;15.90;8.60;;;;;;;-0.81;65.49;99847.15;481009;1171;115764;-55
2021/04/26 04:36:16;;;;;;;15.67;9.73;;;;;;;-0.44;64.88;99853.53;476533;1171;116274;-55
2021/04/26 04:46:20;;;;;;;19.20;9.05;;;;;;;-0.02;64.12;99853.76;478501;1171;115747;-54
2021/04/26 04:56:24;;;;;;;18.60;6.90;;;;;;;0.53;63.01;99864.02;481306;1170;115728;-59
2021/04/26 05:06:28;;;;;;;8.00;5.10;;;;;;;9.29;58.16;99860.55;474357;1171;115871;-54
2021/04/26 05:16:32;;;;;;;12.30;6.80;;;;;;;14.41;44.91;99855.73;472502;1171;115259;-58
2021/04/26 05:26:36;;;;;;;9.33;6.17;;;;;;;18.09;39.18;99859.95;479410;1170;116211;-58
2021/04/26 05:36:40;;;;;;;10.87;6.50;;;;;;;24.00;35.08;99860.66;477038;1171;117626;-57
2021/04/26 05:46:44;;;;;;;10.90;7.40;;;;;;;27.95;29.49;99849.44;475062;1170;116158;-58
2021/04/26 05:56:48;;;;;;;21.10;7.70;;;;;;;28.68;27.11;99853.11;471334;1171;118106;-57
2021/04/26 06:06:51;;;;;;;9.37;6.83;;;;;;;30.29;23.70;99856.02;471847;1171;116471;-56
2021/04/26 06:16:55;;;;;;;8.30;6.70;;;;;;;30.10;22.53;99849.73;473146;1171;116037;-59
2021/04/26 06:26:59;;;;;;;8.07;6.07;;;;;;;32.25;20.02;99857.90;471014;1171;116436;-57
2021/04/26 06:37:03;;;;;;;7.07;6.20;;;;;;;32.56;19.73;99847.77;473601;1171;115904;-57
2021/04/26 06:47:07;;;;;;;10.15;6.60;;;;;;;31.75;17.62;99850.95;470386;1171;115182;-57
2021/04/26 06:57:12;;;;;;;7.55;5.05;;;;;;;32.61;16.56;99851.64;469839;1171;115682;-58
2021/04/26 07:07:16;;;;;;;5.50;4.90;;;;;;;31.36;17.18;99848.59;477153;1171;116386;-60
2021/04/26 07:17:24;;;;;;;6.75;4.75;;;;;;;33.92;15.57;99837.55;483336;1171;116667;-60
2021/04/26 07:27:28;;;;;;;4.00;2.60;;;;;;;28.60;15.10;99842.55;476997;1171;115659;-59
2021/04/26 07:37:32;;;;;;;5.15;4.45;;;;;;;26.69;15.83;99845.05;462347;1171;10001788;-59
2021/04/26 07:47:36;;;;;;;7.23;3.27;;;;;;;27.30;17.13;99837.27;469639;1171;117063;-59
2021/04/26 07:57:41;;;;;;;5.25;2.70;;;;;;;22.23;17.79;99838.48;469546;1171;116072;-59
2021/04/26 08:07:46;;;;;;;2.93;1.75;;;;;;;19.24;18.34;99836.83;469018;1173;116417;-59
2021/04/26 08:17:50;;;;;;;8.60;1.80;;;;;;;17.77;19.11;99835.33;472745;1171;115942;-60
2021/04/26 08:27:55;;;;;;;2.20;1.40;;;;;;;14.78;20.62;99838.89;470327;1171;116058;-59
2021/04/26 08:37:59;;;;;;;3.63;1.90;;;;;;;13.55;22.42;99839.20;469894;1171;116065;-59
2021/04/26 08:48:07;;;;;;;3.05;2.00;;;;;;;11.62;24.04;99841.67;469087;1171;116083;-58
2021/04/26 08:58:11;;;;;;;1.95;1.45;;;;;;;10.87;24.62;99832.33;470168;1171;117058;-59
2021/04/26 09:08:23;;;;;;;5.87;1.90;;;;;;;10.59;25.45;99841.87;469619;1171;116571;-61
2021/04/26 09:18:52;;;;;;;5.30;2.00;;;;;;;9.79;26.17;99842.94;461772;1170;10001963;-59
2021/04/26 09:29:14;;;;;;;3.20;1.10;;;;;;;9.13;26.41;99835.19;469561;1171;116529;-59
2021/04/26 09:39:18;;;;;;;3.77;1.80;;;;;;;9.23;26.93;99841.63;469738;1169;119531;-59
2021/04/26 09:49:24;;;;;;;6.27;2.53;;;;;;;9.08;27.33;99843.30;469946;1171;115491;-59
2021/04/26 11:00:51;;;;;;;1.73;1.20;;;;;;;9.36;26.73;99781.53;474228;1172;64375;-57
2021/04/26 11:11:18;;;;;;;7.57;1.30;;;;;;;9.58;27.03;99768.98;483272;1173;114971;-56
2021/04/26 11:21:55;;;;;;;2.83;1.33;;;;;;;9.39;26.69;99783.11;483625;1174;117191;-57
2021/04/26 11:32:20;;;;;;;2.08;1.93;;;;;;;9.00;27.03;99779.16;480564;1174;115466;-58
2021/04/26 11:42:44;;;;;;;3.17;1.03;;;;;;;9.63;26.67;99759.06;483419;1176;115396;-56
2021/04/26 11:53:09;;;;;;;6.20;1.20;;;;;;;9.71;26.65;99756.84;467370;1173;117743;-55
2021/04/26 12:03:14;;;;;;;1.40;1.00;;;;;;;8.19;27.81;99771.09;467279;1177;116354;-56
2021/04/26 12:13:18;;;;;;;9.20;2.05;;;;;;;8.64;28.03;99760.97;468230;1174;115456;-56
2021/04/26 12:23:22;;;;;;;3.80;1.30;;;;;;;8.98;27.96;99742.56;472682;1165;116809;-56
2021/04/26 12:33:30;;;;;;;5.97;1.03;;;;;;;8.49;28.01;99733.80;480628;1174;115405;-54
2021/04/26 12:43:36;;;;;;;2.05;1.20;;;;;;;8.38;28.95;99709.97;469135;1174;115000;-54
2021/04/26 12:53:41;;;;;;;3.35;1.40;;;;;;;8.81;28.39;99710.31;475055;1174;115046;-54
2021/04/26 13:03:54;;;;;;;3.90;1.95;;;;;;;9.03;28.40;99701.27;483920;1174;115085;-56
2021/04/26 13:14:02;;;;;;;2.87;1.47;;;;;;;9.11;28.26;99692.97;476252;1174;115523;-58
2021/04/26 13:24:14;;;;;;;3.50;1.40;;;;;;;8.98;28.41;99682.33;473850;1174;115509;-53
2021/04/26 13:34:19;;;;;;;3.30;1.80;;;;;;;8.66;29.09;99672.72;483865;1173;116108;-56
2021/04/26 13:44:25;;;;;;;2.97;0.90;;;;;;;9.05;28.72;99667.11;474962;1174;116929;-58
2021/04/26 13:54:29;;;;;;;2.53;1.60;;;;;;;8.79;28.93;99654.57;468507;1174;116015;-52
2021/04/26 14:04:53;;;;;;;2.83;1.10;;;;;;;8.17;29.72;99655.24;476788;1174;115528;-55
2021/04/26 14:14:57;;;;;;;5.25;2.00;;;;;;;8.09;30.11;99649.59;474680;1174;115823;-53
2021/04/26 14:25:01;;;;;;;4.00;1.25;;;;;;;7.69;30.49;99635.05;468878;1173;114734;-51
2021/04/26 14:35:07;;;;;;;4.83;1.93;;;;;;;7.59;30.46;99640.83;476788;1175;167494;-56
2021/04/26 14:45:31;;;;;;;2.20;1.00;;;;;;;7.53;30.85;99631.53;473745;1174;115153;-56
2021/04/26 14:55:34;;;;;;;3.23;1.30;;;;;;;7.54;32.79;99634.05;474125;1174;116058;-58
2021/04/26 15:05:38;;;;;;;2.15;1.50;;;;;;;7.47;33.35;99637.92;480780;1174;115039;-59
2021/04/26 15:15:45;;;;;;;4.15;1.90;;;;;;;7.56;33.94;99644.44;473709;1174;115506;-58
2021/04/26 15:25:49;;;;;;;4.47;1.27;;;;;;;6.89;36.40;99636.40;473083;1174;115960;-59
2021/04/26 15:35:53;;;;;;;3.03;1.50;;;;;;;6.14;39.75;99645.05;482077;1174;115722;-59
2021/04/26 15:45:59;;;;;;;6.73;2.23;;;;;;;6.21;40.25;99622.98;482419;1174;115570;-59
2021/04/26 15:56:04;;;;;;;6.60;2.10;;;;;;;6.33;39.87;99608.55;472591;1173;114885;-60
2021/04/26 16:06:09;;;;;;;1.93;1.23;;;;;;;6.26;39.07;99607.98;467253;1174;116815;-59
2021/04/26 16:16:12;;;;;;;3.27;1.80;;;;;;;6.08;39.73;99600.98;470580;1174;115044;-60
2021/04/26 16:26:17;;;;;;;2.83;1.87;;;;;;;5.99;39.97;99590.02;459347;1173;20002109;-59
2021/04/26 16:36:21;;;;;;;1.90;1.40;;;;;;;5.68;39.07;99591.41;467314;1174;115912;-59
2021/04/26 16:46:24;;;;;;;6.00;1.70;;;;;;;5.47;39.44;99593.16;476173;1174;117226;-60
2021/04/26 16:56:28;;;;;;;2.25;1.30;;;;;;;5.35;39.28;99586.73;470332;1166;115768;-60
2021/04/26 17:06:32;;;;;;;2.80;1.30;;;;;;;5.14;39.09;99580.69;470263;1174;115088;-60
2021/04/26 17:16:36;;;;;;;2.17;1.10;;;;;;;4.74;39.38;99577.96;476304;1176;115428;-59
2021/04/26 17:26:41;;;;;;;3.20;1.50;;;;;;;4.61;40.08;99580.19;478945;1170;115369;-61
2021/04/26 17:36:45;;;;;;;2.40;1.70;;;;;;;4.47;40.49;99581.59;483918;1174;116527;-59
2021/04/26 17:46:49;;;;;;;4.10;1.43;;;;;;;4.22;40.83;99579.08;483859;1174;115791;-60
2021/04/26 17:56:54;;;;;;;14.10;8.67;;;;;;;3.83;41.67;99588.29;479093;1172;116441;-62
2021/04/26 18:06:57;;;;;;;3.05;1.85;;;;;;;3.48;42.63;99585.20;479046;1174;116620;-59
2021/04/26 18:17:02;;;;;;;3.33;2.13;;;;;;;3.21;43.94;99585.25;471980;1174;116393;-59
2021/04/26 18:27:06;;;;;;;3.70;1.80;;;;;;;3.11;43.98;99595.08;468354;1174;115323;-61
2021/04/26 18:37:10;;;;;;;7.95;4.15;;;;;;;2.98;44.43;99601.56;476304;1171;115777;-62
2021/04/26 18:47:14;;;;;;;11.63;5.60;;;;;;;2.80;44.88;99611.66;470349;1169;116392;-62
2021/04/26 18:57:21;;;;;;;12.20;5.90;;;;;;;2.58;45.31;99616.64;474219;1170;116930;-58
2021/04/26 19:07:28;;;;;;;9.77;5.90;;;;;;;2.33;45.12;99619.98;481496;1170;115566;-57
2021/04/26 19:17:33;;;;;;;8.60;6.30;;;;;;;2.12;45.77;99626.64;484261;1170;115706;-58
2021/04/26 19:27:37;;;;;;;8.60;5.35;;;;;;;1.95;46.60;99622.77;485196;1170;115485;-58
2021/04/26 19:37:47;;;;;;;16.25;8.30;;;;;;;1.78;48.49;99626.69;480708;1170;115291;-59
2021/04/26 19:47:51;;;;;;;12.40;7.27;;;;;;;1.54;50.04;99636.81;484415;1169;116088;-60
2021/04/26 19:57:55;;;;;;;12.83;6.20;;;;;;;1.33;50.65;99629.59;484448;1170;116143;-58
2021/04/26 20:08:00;;;;;;;21.93;12.67;;;;;;;1.06;52.07;99642.33;472771;1170;116422;-58
2021/04/26 20:18:05;;;;;;;23.50;11.10;;;;;;;0.80;52.59;99634.30;477286;1171;115731;-56
2021/04/26 20:28:09;;;;;;;28.00;12.63;;;;;;;0.54;53.67;99635.73;473382;1169;116046;-56
2021/04/26 20:38:13;;;;;;;31.63;11.97;;;;;;;0.24;54.12;99640.67;474920;1170;116344;-59
2021/04/26 20:48:17;;;;;;;32.50;13.60;;;;;;;-0.03;55.21;99637.77;469450;1171;115504;-58
2021/04/26 20:58:21;;;;;;;23.80;12.20;;;;;;;-0.31;56.00;99635.70;470662;1171;115566;-58
2021/04/26 21:08:25;;;;;;;22.33;13.00;;;;;;;-0.45;56.69;99642.85;479199;1170;115660;-57
2021/04/26 21:18:28;;;;;;;48.13;16.70;;;;;;;-0.65;57.32;99641.47;471918;1170;115514;-58
2021/04/26 21:28:33;;;;;;;30.30;17.00;;;;;;;-0.85;57.83;99644.38;469376;1170;116057;-59
2021/04/26 21:38:36;;;;;;;26.07;13.30;;;;;;;-1.03;58.52;99654.13;469065;1170;118293;-55
2021/04/26 21:48:40;;;;;;;21.83;13.70;;;;;;;-1.18;59.01;99654.34;472750;1170;116260;-58
2021/04/26 21:58:45;;;;;;;22.05;13.05;;;;;;;-1.33;59.53;99655.41;473108;1170;115435;-55
2021/04/26 22:08:49;;;;;;;27.30;13.93;;;;;;;-1.48;59.80;99656.50;469794;1171;115736;-55
2021/04/26 22:18:54;;;;;;;39.50;16.85;;;;;;;-1.65;60.17;99651.56;470254;1171;115610;-52
2021/04/26 22:28:59;;;;;;;32.20;18.35;;;;;;;-1.81;60.82;99654.31;470380;1170;115987;-55
2021/04/26 22:39:05;;;;;;;27.60;15.80;;;;;;;-1.97;61.35;99658.78;470156;1169;116284;-55
2021/04/26 22:49:09;;;;;;;30.08;17.30;;;;;;;-2.11;61.78;99661.54;470555;1170;118071;-58
2021/04/26 22:59:14;;;;;;;26.40;14.35;;;;;;;-2.19;61.90;99653.04;470227;1170;115828;-55
2021/04/26 23:09:19;;;;;;;31.50;15.45;;;;;;;-2.31;62.59;99652.30;470094;1169;116356;-51
2021/04/26 23:19:23;;;;;;;26.30;15.00;;;;;;;-2.38;63.19;99647.23;470358;1169;115822;-56
2021/04/26 23:29:27;;;;;;;23.80;15.35;;;;;;;-2.45;63.66;99655.00;461448;1170;10000990;-54
2021/04/26 23:39:32;;;;;;;34.07;17.57;;;;;;;-2.49;64.09;99637.05;472756;1170;115951;-56
2021/04/26 23:49:36;;;;;;;24.93;16.27;;;;;;;-2.59;63.79;99642.30;470054;1169;115765;-58
2021/04/26 23:59:40;;;;;;;23.67;17.00;;;;;;;-2.73;64.21;99638.97;476421;1170;116304;-60
